Time;durP1;ratioP1;P1;durP2;ratioP2;P2;SDS_P1;SDS_P2;PMS_P1;PMS_P2;Temp;Humidity;BMP_temperature;BMP_pressure;BME280_temperature;BME280_humidity;BME280_pressure;Samples;Min_cycle;Max_cycle;Signal;HPM_P1;HPM_P2
2021/10/19 00:00:34;;;;;;;11.47;10.27;;;15.90;99.90;;;;;;5114127;28;20163;-83
2021/10/19 00:03:01;;;;;;;11.93;10.53;;;15.90;99.90;;;;;;5096383;28;20186;-84
2021/10/19 00:05:26;;;;;;;10.80;9.73;;;15.90;99.90;;;;;;5118176;28;20233;-86
2021/10/19 00:07:52;;;;;;;10.50;9.50;;;15.90;99.90;;;;;;5124371;28;20226;-83
2021/10/19 00:10:18;;;;;;;11.00;9.40;;;16.00;99.90;;;;;;5127460;28;20261;-84
2021/10/19 00:12:44;;;;;;;12.10;10.27;;;15.90;99.90;;;;;;5101115;28;20206;-83
2021/10/19 00:15:12;;;;;;;11.50;9.00;;;16.10;99.90;;;;;;5118003;28;20510;-83
2021/10/19 00:17:40;;;;;;;11.30;9.50;;;15.90;99.90;;;;;;5117489;28;20174;-83
2021/10/19 00:20:07;;;;;;;10.50;9.23;;;15.90;99.90;;;;;;5099001;28;20250;-82
2021/10/19 00:22:36;;;;;;;10.40;9.33;;;15.90;99.90;;;;;;5116852;28;20167;-81
2021/10/19 00:25:04;;;;;;;10.60;8.57;;;15.90;99.90;;;;;;5099218;28;20262;-81
2021/10/19 00:27:34;;;;;;;9.43;8.53;;;15.90;99.90;;;;;;5099354;28;20175;-84
2021/10/19 00:30:01;;;;;;;11.90;8.90;;;15.90;99.90;;;;;;5117647;28;20240;-84
2021/10/19 00:32:27;;;;;;;9.10;8.20;;;15.80;99.90;;;;;;5116995;28;20248;-82
2021/10/19 00:34:53;;;;;;;10.20;8.20;;;15.90;99.90;;;;;;5099351;28;20174;-82
2021/10/19 00:37:19;;;;;;;9.07;7.80;;;15.80;99.90;;;;;;5099077;28;20589;-83
2021/10/19 00:39:44;;;;;;;9.00;8.10;;;15.90;99.90;;;;;;5117297;28;20645;-82
2021/10/19 00:42:10;;;;;;;8.57;7.57;;;16.00;99.90;;;;;;5099597;28;20167;-83
2021/10/19 00:44:36;;;;;;;7.83;7.03;;;15.90;99.90;;;;;;5117506;28;20635;-86
2021/10/19 00:47:01;;;;;;;7.80;6.83;;;15.80;99.90;;;;;;5099694;28;20216;-87
2021/10/19 00:49:27;;;;;;;8.50;6.97;;;15.80;99.90;;;;;;5117776;28;20255;-85
2021/10/19 00:51:54;;;;;;;9.03;7.50;;;15.80;99.90;;;;;;5099374;28;20203;-85
2021/10/19 00:54:24;;;;;;;8.03;6.90;;;15.80;99.90;;;;;;5099439;28;20207;-86
2021/10/19 00:56:52;;;;;;;9.10;6.83;;;15.80;99.90;;;;;;5099292;28;20233;-87
2021/10/19 00:59:18;;;;;;;7.17;6.47;;;15.70;99.90;;;;;;5099069;28;20175;-86
2021/10/19 01:01:47;;;;;;;8.30;6.30;;;15.80;99.90;;;;;;5116860;28;20528;-86
2021/10/19 01:04:12;;;;;;;8.43;7.07;;;15.80;99.90;;;;;;5099269;28;20265;-84
2021/10/19 01:06:39;;;;;;;8.13;6.80;;;15.80;99.90;;;;;;5098726;28;20269;-85
2021/10/19 01:09:04;;;;;;;7.83;6.10;;;15.70;99.90;;;;;;5117134;28;20189;-83
2021/10/19 01:11:30;;;;;;;6.63;5.93;;;15.80;99.90;;;;;;5116968;28;20183;-85
2021/10/19 01:13:56;;;;;;;7.53;5.80;;;15.80;99.90;;;;;;5117139;28;20202;-84
2021/10/19 01:16:21;;;;;;;6.90;5.97;;;15.60;99.90;;;;;;5098221;28;20575;-84
2021/10/19 01:18:47;;;;;;;7.10;5.80;;;15.60;99.90;;;;;;5117357;28;20178;-86
2021/10/19 01:21:14;;;;;;;6.20;5.50;;;15.60;99.90;;;;;;5116935;28;20627;-85
2021/10/19 01:23:39;;;;;;;9.87;6.73;;;15.60;99.90;;;;;;5098252;28;20189;-83
2021/10/19 01:26:07;;;;;;;7.83;6.40;;;15.70;99.90;;;;;;5096948;28;20178;-83
2021/10/19 01:28:35;;;;;;;6.37;5.77;;;15.60;99.90;;;;;;5116183;28;20635;-80
2021/10/19 01:31:01;;;;;;;6.90;5.27;;;15.60;99.90;;;;;;5097492;28;20182;-83
2021/10/19 01:33:29;;;;;;;5.90;4.93;;;15.80;99.90;;;;;;5115886;28;20206;-83
2021/10/19 01:35:55;;;;;;;6.23;5.07;;;15.70;99.90;;;;;;5098515;28;20167;-86
2021/10/19 01:38:24;;;;;;;6.43;5.70;;;15.70;99.90;;;;;;5117006;28;20209;-86
2021/10/19 01:40:50;;;;;;;8.37;5.97;;;15.60;99.90;;;;;;5116748;28;20280;-86
2021/10/19 01:43:22;;;;;;;9.07;6.03;;;15.70;99.90;;;;;;5098139;28;20629;-83
2021/10/19 01:45:57;;;;;;;6.87;5.10;;;15.60;99.90;;;;;;5108778;28;20634;-86
2021/10/19 01:48:26;;;;;;;4.90;4.27;;;15.80;99.90;;;;;;5115091;28;20177;-85
2021/10/19 01:50:52;;;;;;;6.43;4.80;;;15.70;99.90;;;;;;5116070;28;20210;-83
2021/10/19 01:53:20;;;;;;;12.17;6.77;;;15.60;99.90;;;;;;5124730;28;20221;-86
2021/10/19 01:55:51;;;;;;;4.77;4.17;;;15.70;99.90;;;;;;5122252;28;20169;-85
2021/10/19 01:58:24;;;;;;;6.70;4.83;;;15.60;99.90;;;;;;5121207;28;20163;-87
2021/10/19 02:00:53;;;;;;;9.33;6.23;;;15.70;99.90;;;;;;5097410;28;20189;-82
2021/10/19 02:03:19;;;;;;;6.93;4.73;;;15.70;99.90;;;;;;5098251;28;20171;-83
2021/10/19 02:05:44;;;;;;;5.87;4.60;;;15.70;99.90;;;;;;5098805;28;20206;-83
2021/10/19 02:08:10;;;;;;;5.17;3.93;;;15.70;99.90;;;;;;5100473;28;20179;-81
2021/10/19 02:10:36;;;;;;;6.43;4.67;;;15.80;99.90;;;;;;5134091;28;20179;-80
2021/10/19 02:13:04;;;;;;;5.67;4.30;;;15.70;99.90;;;;;;5114061;28;20195;-82
2021/10/19 02:15:30;;;;;;;4.63;3.67;;;15.70;99.90;;;;;;5118293;28;20166;-82
2021/10/19 02:17:57;;;;;;;4.57;3.80;;;15.70;99.90;;;;;;5101286;28;20173;-82
2021/10/19 02:20:29;;;;;;;4.80;4.17;;;15.80;99.90;;;;;;5117605;28;20163;-81
2021/10/19 02:22:56;;;;;;;4.93;3.80;;;15.80;99.90;;;;;;5102488;28;20231;-85
2021/10/19 02:25:22;;;;;;;4.70;4.13;;;15.80;99.90;;;;;;5116736;28;20174;-83
2021/10/19 02:27:48;;;;;;;4.63;4.23;;;15.80;99.90;;;;;;5097757;28;20175;-86
2021/10/19 02:30:14;;;;;;;6.13;4.20;;;15.70;99.90;;;;;;5106620;28;20637;-85
2021/10/19 02:32:41;;;;;;;4.37;3.97;;;15.80;99.90;;;;;;5101782;28;20569;-84
2021/10/19 02:35:15;;;;;;;5.20;4.33;;;15.90;99.90;;;;;;5098748;28;20209;-86
2021/10/19 02:37:43;;;;;;;4.80;4.30;;;15.90;99.90;;;;;;5118172;28;20181;-84
2021/10/19 02:40:10;;;;;;;5.33;4.30;;;15.90;99.90;;;;;;5114481;28;20179;-83
2021/10/19 02:42:48;;;;;;;5.60;4.70;;;15.90;99.90;;;;;;5133677;28;20167;-81
2021/10/19 02:45:14;;;;;;;4.83;4.33;;;15.90;99.90;;;;;;5130743;28;20199;-83
2021/10/19 02:47:41;;;;;;;6.03;4.70;;;16.00;99.90;;;;;;5107758;28;20175;-84
2021/10/19 02:50:08;;;;;;;5.90;4.80;;;16.10;99.90;;;;;;5125631;28;20194;-85
2021/10/19 02:52:37;;;;;;;6.27;5.00;;;16.00;99.90;;;;;;5122674;28;20194;-83
2021/10/19 02:55:06;;;;;;;6.20;4.83;;;16.10;99.90;;;;;;5103543;28;20170;-85
2021/10/19 02:57:32;;;;;;;6.07;5.37;;;16.10;99.90;;;;;;5119208;28;20570;-84
2021/10/19 02:59:58;;;;;;;5.33;4.80;;;16.10;99.90;;;;;;5116115;28;20174;-85
2021/10/19 03:02:24;;;;;;;6.93;5.90;;;16.10;99.90;;;;;;5097672;28;20167;-85
2021/10/19 03:04:49;;;;;;;6.63;6.00;;;16.10;99.90;;;;;;5097830;28;20744;-83
2021/10/19 03:07:15;;;;;;;6.30;5.70;;;16.10;99.90;;;;;;5115083;28;20167;-85
2021/10/19 03:09:41;;;;;;;9.43;5.67;;;16.20;99.90;;;;;;5098512;28;20219;-84
2021/10/19 03:12:06;;;;;;;6.77;6.00;;;16.10;99.90;;;;;;5097645;28;20569;-85
2021/10/19 03:14:32;;;;;;;7.37;6.60;;;16.00;99.90;;;;;;5115146;28;20552;-85
2021/10/19 03:16:58;;;;;;;6.27;5.67;;;16.10;99.90;;;;;;5117665;28;20155;-84
2021/10/19 03:19:23;;;;;;;8.10;6.77;;;16.10;99.90;;;;;;5101724;28;20174;-87
2021/10/19 03:21:49;;;;;;;7.30;6.60;;;16.00;99.90;;;;;;5114696;28;20174;-85
2021/10/19 03:24:15;;;;;;;7.97;7.17;;;16.00;99.90;;;;;;5096682;28;20635;-86
2021/10/19 03:26:41;;;;;;;7.33;6.63;;;16.20;99.90;;;;;;5114292;28;20173;-85
2021/10/19 03:29:06;;;;;;;7.30;6.60;;;16.00;99.90;;;;;;5096420;28;20243;-83
2021/10/19 03:31:35;;;;;;;12.17;7.47;;;16.20;99.90;;;;;;5096661;28;20647;-86
2021/10/19 03:34:02;;;;;;;8.03;7.23;;;16.10;99.90;;;;;;5097487;28;20229;-85
2021/10/19 03:36:28;;;;;;;8.97;6.93;;;16.10;99.90;;;;;;5115124;28;20171;-86
2021/10/19 03:38:54;;;;;;;7.83;7.03;;;16.00;99.90;;;;;;5118794;28;20175;-84
2021/10/19 03:41:20;;;;;;;7.60;6.90;;;16.00;99.90;;;;;;5118395;28;20182;-85
2021/10/19 03:43:46;;;;;;;8.10;6.73;;;16.00;99.90;;;;;;5096399;28;20178;-85
2021/10/19 03:46:12;;;;;;;6.87;6.27;;;16.10;99.90;;;;;;5098310;28;20175;-87
2021/10/19 03:48:38;;;;;;;7.63;6.57;;;16.00;99.90;;;;;;5115534;28;20653;-86
2021/10/19 03:51:03;;;;;;;7.10;6.27;;;16.00;99.90;;;;;;5097130;28;20214;-87
2021/10/19 03:53:29;;;;;;;7.10;6.40;;;16.10;99.90;;;;;;5096173;28;20217;-82
2021/10/19 03:55:55;;;;;;;7.13;6.17;;;16.00;99.90;;;;;;5096912;28;20665;-82
2021/10/19 03:58:22;;;;;;;6.27;5.70;;;16.20;99.90;;;;;;5095329;28;20232;-83
2021/10/19 04:00:47;;;;;;;6.87;6.00;;;16.10;99.90;;;;;;5113921;28;21029;-82
2021/10/19 04:03:13;;;;;;;6.23;5.63;;;16.00;99.90;;;;;;5113444;28;20167;-86
2021/10/19 04:05:39;;;;;;;6.40;5.80;;;16.10;99.90;;;;;;5099824;28;20178;-83
2021/10/19 04:08:05;;;;;;;5.93;5.33;;;16.10;99.90;;;;;;5122368;28;20170;-84
2021/10/19 04:10:30;;;;;;;5.83;5.33;;;16.20;99.90;;;;;;5104960;28;20210;-86
2021/10/19 04:12:56;;;;;;;6.30;5.37;;;16.20;99.90;;;;;;5097119;28;20210;-87
2021/10/19 04:15:22;;;;;;;5.27;4.77;;;16.20;99.90;;;;;;5097037;28;20205;-86
2021/10/19 04:17:47;;;;;;;5.93;5.30;;;16.20;99.90;;;;;;5106855;28;20533;-84
2021/10/19 04:20:13;;;;;;;6.30;5.70;;;16.20;99.90;;;;;;5117376;28;20217;-88
2021/10/19 04:22:39;;;;;;;7.03;5.87;;;16.20;99.90;;;;;;5107419;28;20171;-84
2021/10/19 04:25:06;;;;;;;7.07;5.50;;;16.30;99.90;;;;;;5102083;28;20170;-86
2021/10/19 04:27:32;;;;;;;6.70;6.10;;;16.20;99.90;;;;;;5080140;28;20658;-87
2021/10/19 04:29:58;;;;;;;6.33;5.63;;;16.10;99.90;;;;;;5116527;28;20199;-86
2021/10/19 04:32:23;;;;;;;6.90;6.30;;;16.20;99.90;;;;;;5111452;28;20171;-80
2021/10/19 04:34:50;;;;;;;7.47;6.73;;;16.20;99.90;;;;;;5129768;28;20179;-86
2021/10/19 04:37:17;;;;;;;8.20;7.03;;;16.20;99.90;;;;;;5106248;28;20504;-86
2021/10/19 04:39:43;;;;;;;8.00;6.90;;;16.20;99.90;;;;;;5132886;28;20192;-86
2021/10/19 04:42:09;;;;;;;9.60;7.93;;;16.20;99.90;;;;;;5117772;28;20222;-87
2021/10/19 04:44:36;;;;;;;8.10;7.40;;;16.10;99.90;;;;;;5116812;28;20202;-87
2021/10/19 04:47:03;;;;;;;8.20;7.37;;;16.20;99.90;;;;;;5115884;28;20216;-86
2021/10/19 04:49:32;;;;;;;9.13;7.70;;;16.20;99.90;;;;;;5098162;28;20225;-82
2021/10/19 04:51:58;;;;;;;11.40;9.13;;;16.20;99.90;;;;;;5099019;28;20695;-82
2021/10/19 04:54:26;;;;;;;9.73;8.77;;;16.30;99.90;;;;;;5118539;28;20230;-81
2021/10/19 04:56:51;;;;;;;9.63;8.73;;;16.30;99.90;;;;;;5111998;28;20713;-83
2021/10/19 04:59:18;;;;;;;9.77;8.97;;;16.20;99.90;;;;;;5117899;28;20277;-84
2021/10/19 05:01:47;;;;;;;8.83;8.03;;;16.20;99.90;;;;;;5101249;28;20171;-86
2021/10/19 05:04:15;;;;;;;8.67;7.87;;;16.20;99.90;;;;;;5118057;28;20164;-84
2021/10/19 05:06:44;;;;;;;8.27;7.47;;;16.20;99.90;;;;;;5117757;28;20626;-84
2021/10/19 05:09:10;;;;;;;9.40;8.60;;;16.20;99.90;;;;;;5117275;28;20222;-85
2021/10/19 05:11:36;;;;;;;8.93;8.13;;;16.20;99.90;;;;;;5099460;28;20179;-83
2021/10/19 05:14:02;;;;;;;9.03;8.20;;;16.20;99.90;;;;;;5102602;28;20210;-85
2021/10/19 05:16:28;;;;;;;10.20;9.07;;;16.20;99.90;;;;;;5127499;28;20163;-85
2021/10/19 05:18:54;;;;;;;9.17;8.27;;;16.20;99.90;;;;;;5134652;27;20220;-83
2021/10/19 05:21:19;;;;;;;8.70;7.90;;;16.20;99.90;;;;;;5109221;28;20178;-86
2021/10/19 05:23:48;;;;;;;9.50;8.70;;;16.20;99.90;;;;;;5117497;28;20167;-87
2021/10/19 05:26:17;;;;;;;9.63;8.73;;;16.20;99.90;;;;;;5110263;28;20250;-86
2021/10/19 05:28:43;;;;;;;9.87;8.97;;;16.20;99.90;;;;;;5098849;28;20179;-85
2021/10/19 05:31:09;;;;;;;9.10;8.30;;;16.20;99.90;;;;;;5097901;28;20220;-85
2021/10/19 05:33:35;;;;;;;9.03;8.23;;;16.30;99.90;;;;;;5099243;28;20581;-84
2021/10/19 05:36:01;;;;;;;10.10;8.43;;;16.20;99.90;;;;;;5106593;28;20179;-82
2021/10/19 05:38:33;;;;;;;8.57;7.73;;;16.20;99.90;;;;;;5113114;28;20191;-82
2021/10/19 05:41:00;;;;;;;10.67;8.80;;;16.20;99.90;;;;;;5116789;28;20238;-84
2021/10/19 05:43:26;;;;;;;11.20;10.10;;;16.20;99.90;;;;;;5117055;28;20537;-86
2021/10/19 05:45:54;;;;;;;11.30;10.20;;;16.20;99.90;;;;;;5116721;28;20694;-85
2021/10/19 05:48:20;;;;;;;11.40;10.30;;;16.30;99.90;;;;;;5098812;28;20260;-85
2021/10/19 05:50:46;;;;;;;11.17;9.87;;;16.20;99.90;;;;;;5097712;28;20205;-88
2021/10/19 05:53:12;;;;;;;12.00;10.77;;;16.20;99.90;;;;;;5098361;28;20278;-87
2021/10/19 05:55:38;;;;;;;11.77;10.67;;;16.20;99.90;;;;;;5117365;28;20669;-84
2021/10/19 05:58:04;;;;;;;14.97;10.07;;;16.20;99.90;;;;;;5090808;28;20531;-88
2021/10/19 06:00:31;;;;;;;11.60;10.40;;;16.20;99.90;;;;;;5090370;28;21029;-85
2021/10/19 06:02:57;;;;;;;12.60;11.30;;;16.20;99.90;;;;;;5115417;28;20639;-84
2021/10/19 06:05:22;;;;;;;12.07;10.87;;;16.20;99.90;;;;;;5092874;28;20161;-82
2021/10/19 06:07:52;;;;;;;12.10;11.00;;;16.30;99.90;;;;;;5096122;28;20577;-85
2021/10/19 06:10:21;;;;;;;12.83;10.30;;;16.20;99.90;;;;;;5097651;28;20198;-83
2021/10/19 06:12:50;;;;;;;11.30;10.10;;;16.30;99.90;;;;;;5098317;27;20293;-84
2021/10/19 06:15:17;;;;;;;15.10;10.93;;;16.20;99.90;;;;;;5098154;28;20181;-85
2021/10/19 06:17:43;;;;;;;11.43;10.23;;;16.20;99.90;;;;;;5097331;28;20695;-82
2021/10/19 06:20:11;;;;;;;12.13;9.53;;;16.20;99.90;;;;;;5115961;27;20570;-86
2021/10/19 06:22:37;;;;;;;12.93;9.33;;;16.20;99.90;;;;;;5100837;28;20177;-86
2021/10/19 06:25:04;;;;;;;9.57;8.57;;;16.20;99.90;;;;;;5107973;28;20657;-84
2021/10/19 06:27:30;;;;;;;9.50;8.07;;;16.20;99.90;;;;;;5094469;28;20171;-87
2021/10/19 06:29:55;;;;;;;8.20;7.40;;;16.20;99.90;;;;;;5095111;28;20276;-82
2021/10/19 06:32:24;;;;;;;8.30;7.40;;;16.30;99.90;;;;;;5089767;27;20193;-87
2021/10/19 06:34:49;;;;;;;9.77;7.07;;;16.20;99.90;;;;;;5133974;27;20246;-85
2021/10/19 06:37:15;;;;;;;11.27;7.10;;;16.30;99.90;;;;;;5113863;28;20634;-86
2021/10/19 06:39:41;;;;;;;9.43;6.87;;;16.20;99.90;;;;;;5095869;28;20180;-85
2021/10/19 06:42:07;;;;;;;9.00;6.73;;;16.30;99.90;;;;;;5114292;28;20167;-83
2021/10/19 06:44:33;;;;;;;8.70;6.67;;;16.20;99.90;;;;;;5115229;28;20163;-83
2021/10/19 06:46:59;;;;;;;9.67;7.83;;;16.20;99.90;;;;;;5105113;28;20327;-83
2021/10/19 06:49:24;;;;;;;10.30;7.90;;;16.20;99.90;;;;;;5116194;28;20640;-85
2021/10/19 06:51:51;;;;;;;10.60;8.60;;;16.20;99.90;;;;;;5096328;28;20305;-85
2021/10/19 06:54:17;;;;;;;11.60;8.80;;;16.20;99.90;;;;;;5099296;27;20220;-82
2021/10/19 06:56:42;;;;;;;8.90;7.63;;;16.20;99.90;;;;;;5116003;27;20266;-84
2021/10/19 06:59:08;;;;;;;8.93;7.73;;;16.20;99.90;;;;;;5134152;27;20166;-83
2021/10/19 07:01:34;;;;;;;10.07;7.77;;;16.30;99.90;;;;;;5116271;27;20621;-83
2021/10/19 07:03:59;;;;;;;9.37;8.03;;;16.40;99.90;;;;;;5133819;27;20177;-81
2021/10/19 07:06:25;;;;;;;9.03;7.90;;;16.30;99.90;;;;;;5134809;27;20245;-82
2021/10/19 07:08:53;;;;;;;9.53;8.27;;;16.30;99.90;;;;;;5135114;27;20228;-81
2021/10/19 07:11:19;;;;;;;10.80;7.73;;;16.40;99.90;;;;;;5155542;27;20169;-80
2021/10/19 07:13:45;;;;;;;11.87;9.23;;;16.40;99.90;;;;;;5143831;27;20553;-84
2021/10/19 07:16:11;;;;;;;12.37;8.63;;;16.30;99.90;;;;;;5116886;27;20690;-83
2021/10/19 07:18:36;;;;;;;10.83;9.43;;;16.40;99.90;;;;;;5134667;27;20656;-83
2021/10/19 07:21:02;;;;;;;12.50;9.60;;;16.40;99.90;;;;;;5115367;27;20652;-83
2021/10/19 07:23:28;;;;;;;12.07;9.93;;;16.50;99.90;;;;;;5110315;27;20702;-84
2021/10/19 07:25:54;;;;;;;13.10;10.37;;;16.50;99.90;;;;;;5084169;28;20266;-82
2021/10/19 07:28:20;;;;;;;14.60;11.43;;;16.50;99.90;;;;;;5095510;28;20218;-82
2021/10/19 07:30:46;;;;;;;13.87;11.20;;;16.50;99.90;;;;;;5079621;28;20168;-83
2021/10/19 07:33:12;;;;;;;15.80;12.20;;;16.50;99.90;;;;;;5094690;28;20192;-82
2021/10/19 07:35:38;;;;;;;13.93;12.20;;;16.50;99.90;;;;;;5075402;28;20164;-83
2021/10/19 07:38:05;;;;;;;17.60;13.03;;;16.50;99.90;;;;;;5092976;28;20236;-82
2021/10/19 07:40:31;;;;;;;18.30;13.37;;;16.60;99.90;;;;;;5074640;28;20515;-82
2021/10/19 07:42:57;;;;;;;21.63;15.43;;;16.50;99.90;;;;;;5093041;28;20174;-83
2021/10/19 07:45:23;;;;;;;21.40;16.03;;;16.60;99.90;;;;;;5059113;28;20314;-82
2021/10/19 07:47:50;;;;;;;22.97;16.33;;;16.50;99.90;;;;;;5093807;28;20175;-83
2021/10/19 07:50:18;;;;;;;25.40;16.90;;;16.60;99.90;;;;;;5096946;28;20210;-82
2021/10/19 07:52:43;;;;;;;28.97;17.20;;;16.60;99.90;;;;;;5076221;28;20205;-82
2021/10/19 07:55:11;;;;;;;21.53;15.20;;;16.60;99.90;;;;;;5089438;28;20270;-81
2021/10/19 07:57:44;;;;;;;25.67;17.53;;;16.60;99.90;;;;;;5095362;28;20170;-81
2021/10/19 08:00:13;;;;;;;28.73;19.13;;;16.60;99.90;;;;;;5097422;28;20626;-81
2021/10/19 08:02:42;;;;;;;29.97;17.93;;;16.60;99.90;;;;;;5109000;28;20171;-83
2021/10/19 08:05:15;;;;;;;29.73;18.70;;;16.80;99.90;;;;;;5121124;28;20254;-83
2021/10/19 08:07:42;;;;;;;29.47;18.77;;;16.80;99.90;;;;;;5113022;28;20178;-84
2021/10/19 08:10:20;;;;;;;24.57;19.20;;;16.80;99.90;;;;;;5095431;28;20184;-82
2021/10/19 08:12:47;;;;;;;31.53;20.13;;;16.90;99.90;;;;;;5096477;28;20547;-82
2021/10/19 08:15:14;;;;;;;24.43;18.73;;;16.90;99.90;;;;;;5095213;28;20171;-82
2021/10/19 08:17:40;;;;;;;29.77;19.70;;;16.90;99.90;;;;;;5113191;28;20176;-83
2021/10/19 08:20:08;;;;;;;30.23;20.83;;;17.00;99.90;;;;;;5112833;28;20172;-82
2021/10/19 08:22:34;;;;;;;27.30;18.50;;;17.00;99.90;;;;;;5121036;28;20159;-83
2021/10/19 08:25:05;;;;;;;34.03;20.93;;;17.10;99.90;;;;;;5108310;28;20179;-80
2021/10/19 08:27:32;;;;;;;28.90;20.67;;;17.10;99.90;;;;;;5126254;28;20199;-83
2021/10/19 08:29:57;;;;;;;27.63;19.67;;;17.10;99.90;;;;;;5101407;28;20217;-81
2021/10/19 08:32:23;;;;;;;25.87;19.33;;;17.10;99.90;;;;;;5099311;28;20179;-81
2021/10/19 08:34:50;;;;;;;28.50;19.43;;;17.10;99.90;;;;;;5098440;28;20267;-80
2021/10/19 08:37:16;;;;;;;26.93;19.67;;;17.20;99.90;;;;;;5117364;28;20172;-83
2021/10/19 08:39:42;;;;;;;32.53;20.27;;;17.20;99.90;;;;;;5121514;28;20226;-81
2021/10/19 08:42:09;;;;;;;27.43;19.13;;;17.10;99.90;;;;;;5128058;28;20164;-81
2021/10/19 08:44:34;;;;;;;28.73;19.03;;;17.20;99.90;;;;;;5106876;28;20171;-80
2021/10/19 08:47:02;;;;;;;27.90;19.40;;;17.20;99.90;;;;;;5122776;28;20195;-80
2021/10/19 08:49:28;;;;;;;24.70;16.70;;;17.20;99.90;;;;;;5090435;28;20596;-81
2021/10/19 08:51:53;;;;;;;34.60;19.67;;;17.20;99.90;;;;;;5107456;28;20218;-80
2021/10/19 08:54:19;;;;;;;25.07;17.20;;;17.30;99.90;;;;;;5119346;28;20692;-80
2021/10/19 08:56:45;;;;;;;19.97;16.87;;;17.40;99.90;;;;;;5117168;28;20158;-80
2021/10/19 08:59:12;;;;;;;20.50;15.73;;;17.30;99.90;;;;;;5120211;28;20666;-81
2021/10/19 09:01:40;;;;;;;21.30;15.13;;;17.30;99.90;;;;;;5122546;28;20310;-81
2021/10/19 09:04:08;;;;;;;21.27;14.30;;;17.30;99.90;;;;;;5116745;28;20694;-81
2021/10/19 09:06:35;;;;;;;19.70;14.40;;;17.40;99.90;;;;;;5098020;28;20183;-83
2021/10/19 09:09:06;;;;;;;16.43;13.20;;;17.50;99.90;;;;;;5117830;28;20168;-83
2021/10/19 09:11:42;;;;;;;15.00;12.57;;;17.40;99.90;;;;;;5116467;28;20165;-81
2021/10/19 09:14:10;;;;;;;16.30;12.50;;;17.50;99.90;;;;;;5116603;28;20206;-81
2021/10/19 09:16:40;;;;;;;21.53;13.77;;;17.50;99.90;;;;;;5097811;28;20179;-81
2021/10/19 09:19:07;;;;;;;16.47;12.70;;;17.60;99.90;;;;;;5097789;28;20198;-81
2021/10/19 09:21:33;;;;;;;17.33;12.43;;;17.50;99.90;;;;;;5115753;28;20199;-80
2021/10/19 09:24:21;;;;;;;16.13;12.60;;;17.60;99.90;;;;;;5102032;27;20674;-81
2021/10/19 09:26:59;;;;;;;13.73;10.87;;;17.60;99.90;;;;;;5117831;27;20218;-80
2021/10/19 09:29:27;;;;;;;14.83;10.87;;;17.70;99.90;;;;;;5117690;27;20239;-82
2021/10/19 09:32:01;;;;;;;14.43;11.20;;;17.70;99.90;;;;;;5117930;27;20170;-80
2021/10/19 09:34:32;;;;;;;12.43;10.23;;;17.80;99.90;;;;;;5100894;27;20741;-81
2021/10/19 09:36:59;;;;;;;20.30;12.30;;;17.90;99.90;;;;;;5118174;27;20196;-81
2021/10/19 09:39:39;;;;;;;11.73;9.80;;;18.00;99.90;;;;;;5098468;28;20652;-84
2021/10/19 09:42:23;;;;;;;15.40;10.70;;;18.00;99.90;;;;;;5097887;28;20206;-82
2021/10/19 09:45:01;;;;;;;15.30;10.17;;;18.10;99.90;;;;;;5077716;28;20179;-81
2021/10/19 09:47:38;;;;;;;14.67;9.57;;;18.10;99.90;;;;;;5084313;27;20169;-82
2021/10/19 09:50:08;;;;;;;12.40;9.23;;;18.20;99.90;;;;;;5118621;27;20212;-80
2021/10/19 09:52:37;;;;;;;11.93;9.57;;;18.20;99.90;;;;;;5130931;27;20180;-82
2021/10/19 09:55:07;;;;;;;15.27;9.27;;;18.20;99.90;;;;;;5097731;28;20179;-82
2021/10/19 09:57:33;;;;;;;13.40;9.67;;;18.20;99.90;;;;;;5097065;28;20213;-82
2021/10/19 09:59:59;;;;;;;14.70;8.50;;;18.30;99.90;;;;;;5115364;28;20163;-83
2021/10/19 10:02:25;;;;;;;10.63;8.67;;;18.40;99.90;;;;;;5113795;28;20635;-82
2021/10/19 10:04:52;;;;;;;10.13;8.50;;;18.40;99.90;;;;;;5113704;28;20224;-83
2021/10/19 10:07:21;;;;;;;10.87;9.23;;;18.30;99.90;;;;;;5114957;28;20180;-81
2021/10/19 10:09:47;;;;;;;11.00;8.43;;;18.40;99.90;;;;;;5113932;28;20175;-81
2021/10/19 10:12:12;;;;;;;10.97;8.43;;;18.50;99.90;;;;;;5113095;28;20801;-82
2021/10/19 10:14:47;;;;;;;12.90;8.67;;;18.40;99.90;;;;;;5115058;28;20215;-82
2021/10/19 10:17:13;;;;;;;13.27;9.10;;;18.50;99.90;;;;;;5113290;28;20574;-82
2021/10/19 10:19:40;;;;;;;10.97;8.57;;;18.50;99.90;;;;;;5113308;28;20602;-82
2021/10/19 10:22:30;;;;;;;9.97;8.07;;;18.40;99.90;;;;;;5113801;28;20177;-80
2021/10/19 10:25:13;;;;;;;13.77;8.40;;;18.30;99.90;;;;;;5113006;28;20174;-82
2021/10/19 10:27:39;;;;;;;12.20;7.83;;;18.40;99.90;;;;;;5112926;28;20170;-83
2021/10/19 10:30:16;;;;;;;10.50;7.50;;;18.30;99.90;;;;;;5114651;28;20202;-81
2021/10/19 10:32:42;;;;;;;10.70;8.30;;;18.30;99.90;;;;;;5113666;28;20650;-81
2021/10/19 10:35:17;;;;;;;12.07;8.20;;;18.30;99.90;;;;;;5113796;28;20176;-81
2021/10/19 10:37:52;;;;;;;10.37;7.87;;;18.30;99.90;;;;;;5118340;28;20169;-79
2021/10/19 10:40:33;;;;;;;11.10;7.30;;;18.30;99.90;;;;;;5114627;28;20181;-81
2021/10/19 10:43:14;;;;;;;14.00;7.70;;;18.30;99.90;;;;;;5113003;28;20179;-81
2021/10/19 10:45:40;;;;;;;10.13;7.70;;;18.40;99.90;;;;;;5114607;28;20179;-82
2021/10/19 10:48:06;;;;;;;9.10;7.70;;;18.30;99.90;;;;;;5095986;28;20235;-82
2021/10/19 10:50:37;;;;;;;11.47;7.53;;;18.40;99.90;;;;;;5096817;28;20702;-81
2021/10/19 10:53:05;;;;;;;9.33;7.90;;;18.40;99.90;;;;;;5114344;28;20199;-82
2021/10/19 10:55:40;;;;;;;8.27;7.27;;;18.40;99.90;;;;;;5113184;28;20655;-81
2021/10/19 10:58:05;;;;;;;7.67;6.87;;;18.50;99.90;;;;;;5115074;28;20213;-82
2021/10/19 11:00:31;;;;;;;9.03;7.63;;;18.60;99.90;;;;;;5127274;28;20167;-81
2021/10/19 11:03:15;;;;;;;10.87;7.87;;;18.70;99.90;;;;;;5123640;28;20651;-82
2021/10/19 11:06:00;;;;;;;7.90;7.10;;;18.70;99.90;;;;;;5124571;28;20539;-81
2021/10/19 11:08:29;;;;;;;8.97;7.37;;;18.80;99.90;;;;;;5130089;28;20179;-82
2021/10/19 11:11:04;;;;;;;10.23;7.97;;;18.80;99.90;;;;;;5122293;28;20239;-83
2021/10/19 11:13:32;;;;;;;8.70;7.80;;;18.90;99.90;;;;;;5099894;28;20313;-83
2021/10/19 11:15:59;;;;;;;9.00;7.30;;;18.90;99.90;;;;;;5097223;28;20175;-84
2021/10/19 11:18:27;;;;;;;8.63;7.67;;;19.00;99.90;;;;;;5096203;28;20185;-82
2021/10/19 11:20:56;;;;;;;8.33;7.43;;;19.20;99.90;;;;;;5095673;28;20201;-83
2021/10/19 11:23:23;;;;;;;9.50;8.00;;;19.10;99.90;;;;;;5098078;28;20175;-82
2021/10/19 11:25:49;;;;;;;10.07;7.77;;;19.00;99.90;;;;;;5099240;28;20167;-82
2021/10/19 11:28:16;;;;;;;9.20;7.77;;;19.10;99.90;;;;;;5115192;28;20176;-83
2021/10/19 11:30:43;;;;;;;9.03;8.07;;;19.00;99.90;;;;;;5108041;28;20170;-83
2021/10/19 11:33:10;;;;;;;11.10;8.30;;;19.00;99.90;;;;;;5095724;28;20241;-82
2021/10/19 11:35:36;;;;;;;8.20;7.40;;;19.00;99.90;;;;;;5114103;28;20191;-81
2021/10/19 11:38:03;;;;;;;8.97;8.07;;;18.90;99.90;;;;;;5096266;28;20171;-81
2021/10/19 11:40:32;;;;;;;9.03;7.50;;;19.10;99.90;;;;;;5101017;28;20187;-81
2021/10/19 11:42:58;;;;;;;10.73;7.77;;;19.10;99.90;;;;;;5111218;28;20175;-82
2021/10/19 11:45:25;;;;;;;13.40;8.13;;;19.20;99.90;;;;;;5110963;28;20163;-80
2021/10/19 11:47:52;;;;;;;12.90;8.00;;;19.10;99.90;;;;;;5123146;28;20224;-83
2021/10/19 11:50:31;;;;;;;10.00;7.50;;;19.10;99.90;;;;;;5114936;28;20195;-84
2021/10/19 11:52:57;;;;;;;9.20;7.47;;;19.20;99.90;;;;;;5114821;28;20197;-83
2021/10/19 11:55:24;;;;;;;10.80;7.80;;;19.20;99.90;;;;;;5095839;28;20220;-82
2021/10/19 11:57:53;;;;;;;11.40;7.27;;;19.10;99.90;;;;;;5113912;28;20171;-82
2021/10/19 12:00:22;;;;;;;9.87;7.77;;;19.20;99.90;;;;;;5113008;28;20229;-84
2021/10/19 12:03:00;;;;;;;9.97;7.90;;;19.20;99.90;;;;;;5096271;28;20512;-80
2021/10/19 12:05:28;;;;;;;10.17;7.73;;;19.20;99.90;;;;;;5113254;28;20710;-81
2021/10/19 12:07:57;;;;;;;10.60;7.83;;;19.20;99.90;;;;;;5094616;28;20175;-82
2021/10/19 12:10:29;;;;;;;12.10;8.33;;;19.20;99.90;;;;;;5094425;28;20175;-82
2021/10/19 12:13:02;;;;;;;11.53;7.63;;;19.20;99.90;;;;;;5112959;28;20190;-80
2021/10/19 12:15:31;;;;;;;12.60;8.43;;;19.20;99.90;;;;;;5094893;28;20233;-81
2021/10/19 12:18:14;;;;;;;10.33;8.30;;;19.20;99.90;;;;;;5112636;28;20167;-80
2021/10/19 12:20:40;;;;;;;13.00;8.93;;;19.20;99.90;;;;;;5094238;28;20213;-81
2021/10/19 12:23:09;;;;;;;11.70;8.17;;;19.20;99.90;;;;;;5112240;28;20183;-82
2021/10/19 12:25:39;;;;;;;12.53;8.77;;;19.20;99.90;;;;;;5115442;28;20228;-81
2021/10/19 12:28:07;;;;;;;12.77;8.50;;;19.30;99.90;;;;;;5098441;28;20182;-80
2021/10/19 12:30:42;;;;;;;13.10;9.33;;;19.20;99.90;;;;;;5098355;28;20547;-81
2021/10/19 12:33:10;;;;;;;10.87;9.47;;;19.10;99.90;;;;;;5095664;28;20203;-81
2021/10/19 12:35:35;;;;;;;16.27;9.43;;;19.10;99.90;;;;;;5113156;28;20507;-80
2021/10/19 12:38:11;;;;;;;11.60;9.00;;;19.10;99.90;;;;;;5094180;28;20652;-82
2021/10/19 12:40:43;;;;;;;11.67;8.97;;;19.10;99.90;;;;;;5112855;28;20167;-83
2021/10/19 12:43:09;;;;;;;11.50;9.23;;;19.30;99.90;;;;;;5112654;28;20584;-81